sensor_id;sensor_type;location;lat;lon;timestamp;temperature;humidity
43043;DHT22;28667;50.758;6.096;2023-03-14T00:01:37;10.70;99.90
43043;DHT22;28667;50.758;6.096;2023-03-14T00:04:04;10.70;99.90
43043;DHT22;28667;50.758;6.096;2023-03-14T00:06:30;10.80;99.90
43043;DHT22;28667;50.758;6.096;2023-03-14T00:08:57;10.80;99.90
43043;DHT22;28667;50.758;6.096;2023-03-14T00:11:23;10.80;99.90
43043;DHT22;28667;50.758;6.096;2023-03-14T00:13:52;10.70;99.90
43043;DHT22;28667;50.758;6.096;2023-03-14T00:16:19;10.70;99.90
43043;DHT22;28667;50.758;6.096;2023-03-14T00:18:45;10.70;99.90
43043;DHT22;28667;50.758;6.096;2023-03-14T00:21:11;10.60;99.90
43043;DHT22;28667;50.758;6.096;2023-03-14T00:23:38;10.60;99.90
43043;DHT22;28667;50.758;6.096;2023-03-14T00:26:15;10.50;99.90
43043;DHT22;28667;50.758;6.096;2023-03-14T00:28:42;10.40;99.90
43043;DHT22;28667;50.758;6.096;2023-03-14T00:31:10;10.20;99.90
43043;DHT22;28667;50.758;6.096;2023-03-14T00:33:36;10.10;99.90
43043;DHT22;28667;50.758;6.096;2023-03-14T00:36:09;9.90;99.90
43043;DHT22;28667;50.758;6.096;2023-03-14T00:38:37;9.80;99.90
43043;DHT22;28667;50.758;6.096;2023-03-14T00:41:05;9.70;99.90
43043;DHT22;28667;50.758;6.096;2023-03-14T00:43:31;9.50;99.90
43043;DHT22;28667;50.758;6.096;2023-03-14T00:45:57;9.40;99.90
43043;DHT22;28667;50.758;6.096;2023-03-14T00:48:26;9.30;99.90
43043;DHT22;28667;50.758;6.096;2023-03-14T00:50:52;9.20;99.90
43043;DHT22;28667;50.758;6.096;2023-03-14T00:53:18;9.10;99.90
43043;DHT22;28667;50.758;6.096;2023-03-14T00:55:44;9.00;99.90
43043;DHT22;28667;50.758;6.096;2023-03-14T00:58:15;9.00;99.90
43043;DHT22;28667;50.758;6.096;2023-03-14T01:00:41;8.90;99.90
43043;DHT22;28667;50.758;6.096;2023-03-14T01:03:09;8.90;99.90
43043;DHT22;28667;50.758;6.096;2023-03-14T01:05:35;8.90;99.90
43043;DHT22;28667;50.758;6.096;2023-03-14T01:08:01;8.90;99.90
43043;DHT22;28667;50.758;6.096;2023-03-14T01:10:27;8.90;99.90
43043;DHT22;28667;50.758;6.096;2023-03-14T01:12:53;8.90;99.90
43043;DHT22;28667;50.758;6.096;2023-03-14T01:15:19;8.90;99.90
43043;DHT22;28667;50.758;6.096;2023-03-14T01:17:45;9.00;99.90
43043;DHT22;28667;50.758;6.096;2023-03-14T01:20:12;9.00;99.90
43043;DHT22;28667;50.758;6.096;2023-03-14T01:22:39;8.90;99.90
43043;DHT22;28667;50.758;6.096;2023-03-14T01:25:07;8.90;99.90
43043;DHT22;28667;50.758;6.096;2023-03-14T01:27:33;9.00;99.90
43043;DHT22;28667;50.758;6.096;2023-03-14T01:29:58;8.90;99.90
43043;DHT22;28667;50.758;6.096;2023-03-14T01:32:24;8.90;99.90
43043;DHT22;28667;50.758;6.096;2023-03-14T01:34:52;8.80;99.90
43043;DHT22;28667;50.758;6.096;2023-03-14T01:37:18;8.80;99.90
43043;DHT22;28667;50.758;6.096;2023-03-14T01:39:43;8.80;99.90
43043;DHT22;28667;50.758;6.096;2023-03-14T01:42:09;8.70;99.90
43043;DHT22;28667;50.758;6.096;2023-03-14T01:47:13;8.60;99.90
43043;DHT22;28667;50.758;6.096;2023-03-14T01:49:39;8.60;99.90
43043;DHT22;28667;50.758;6.096;2023-03-14T01:52:47;8.60;99.90
43043;DHT22;28667;50.758;6.096;2023-03-14T01:55:25;8.50;99.90
43043;DHT22;28667;50.758;6.096;2023-03-14T01:57:55;8.60;99.90
43043;DHT22;28667;50.758;6.096;2023-03-14T02:00:23;8.60;99.90
43043;DHT22;28667;50.758;6.096;2023-03-14T02:03:02;8.60;99.90
43043;DHT22;28667;50.758;6.096;2023-03-14T02:05:34;8.60;99.90
43043;DHT22;28667;50.758;6.096;2023-03-14T02:08:06;8.70;99.90
43043;DHT22;28667;50.758;6.096;2023-03-14T02:10:45;8.60;99.90
43043;DHT22;28667;50.758;6.096;2023-03-14T02:13:14;8.70;99.90
43043;DHT22;28667;50.758;6.096;2023-03-14T02:15:59;8.70;99.90
43043;DHT22;28667;50.758;6.096;2023-03-14T02:18:40;8.70;99.90
43043;DHT22;28667;50.758;6.096;2023-03-14T02:21:57;8.80;99.90
43043;DHT22;28667;50.758;6.096;2023-03-14T02:24:35;8.90;99.90
43043;DHT22;28667;50.758;6.096;2023-03-14T02:27:10;9.00;99.90
43043;DHT22;28667;50.758;6.096;2023-03-14T02:29:54;9.00;99.90
43043;DHT22;28667;50.758;6.096;2023-03-14T02:32:23;9.00;99.90
43043;DHT22;28667;50.758;6.096;2023-03-14T02:34:54;9.10;99.90
43043;DHT22;28667;50.758;6.096;2023-03-14T02:37:24;9.10;99.90
43043;DHT22;28667;50.758;6.096;2023-03-14T02:39:52;9.10;99.90
43043;DHT22;28667;50.758;6.096;2023-03-14T02:42:18;9.20;99.90
43043;DHT22;28667;50.758;6.096;2023-03-14T02:44:59;9.20;99.90
43043;DHT22;28667;50.758;6.096;2023-03-14T02:47:29;9.20;99.90
43043;DHT22;28667;50.758;6.096;2023-03-14T02:50:23;9.30;99.90
43043;DHT22;28667;50.758;6.096;2023-03-14T02:52:50;9.30;99.90
43043;DHT22;28667;50.758;6.096;2023-03-14T02:55:24;9.30;99.90
43043;DHT22;28667;50.758;6.096;2023-03-14T02:57:54;9.20;99.90
43043;DHT22;28667;50.758;6.096;2023-03-14T03:00:20;9.20;99.90
43043;DHT22;28667;50.758;6.096;2023-03-14T03:02:46;9.10;99.90
43043;DHT22;28667;50.758;6.096;2023-03-14T03:05:13;9.10;99.90
43043;DHT22;28667;50.758;6.096;2023-03-14T03:07:39;9.10;99.90
43043;DHT22;28667;50.758;6.096;2023-03-14T03:10:05;9.10;99.90
43043;DHT22;28667;50.758;6.096;2023-03-14T03:12:31;9.10;99.90
43043;DHT22;28667;50.758;6.096;2023-03-14T03:14:57;9.10;99.90
43043;DHT22;28667;50.758;6.096;2023-03-14T03:17:23;9.10;99.90
43043;DHT22;28667;50.758;6.096;2023-03-14T03:19:48;9.00;99.90
43043;DHT22;28667;50.758;6.096;2023-03-14T03:22:14;9.00;99.90
43043;DHT22;28667;50.758;6.096;2023-03-14T03:24:40;9.10;99.90
43043;DHT22;28667;50.758;6.096;2023-03-14T03:27:06;9.10;99.90
43043;DHT22;28667;50.758;6.096;2023-03-14T03:29:32;9.00;99.90
43043;DHT22;28667;50.758;6.096;2023-03-14T03:31:58;9.00;99.90
43043;DHT22;28667;50.758;6.096;2023-03-14T03:34:23;9.00;99.90
43043;DHT22;28667;50.758;6.096;2023-03-14T03:36:56;8.90;99.90
43043;DHT22;28667;50.758;6.096;2023-03-14T03:39:22;8.90;99.90
43043;DHT22;28667;50.758;6.096;2023-03-14T03:41:48;8.90;99.90
43043;DHT22;28667;50.758;6.096;2023-03-14T03:44:14;9.00;99.90
43043;DHT22;28667;50.758;6.096;2023-03-14T03:46:40;9.00;99.90
43043;DHT22;28667;50.758;6.096;2023-03-14T03:49:08;9.00;99.90
43043;DHT22;28667;50.758;6.096;2023-03-14T03:51:34;8.90;99.90
43043;DHT22;28667;50.758;6.096;2023-03-14T03:54:00;8.90;99.90
43043;DHT22;28667;50.758;6.096;2023-03-14T03:56:34;8.90;99.90
43043;DHT22;28667;50.758;6.096;2023-03-14T03:59:00;8.80;99.90
43043;DHT22;28667;50.758;6.096;2023-03-14T04:01:26;8.80;99.90
43043;DHT22;28667;50.758;6.096;2023-03-14T04:03:56;8.80;99.90
43043;DHT22;28667;50.758;6.096;2023-03-14T04:06:23;8.80;99.90
43043;DHT22;28667;50.758;6.096;2023-03-14T04:08:51;8.70;99.90
43043;DHT22;28667;50.758;6.096;2023-03-14T04:11:36;8.70;99.90
43043;DHT22;28667;50.758;6.096;2023-03-14T04:14:10;8.70;99.90
43043;DHT22;28667;50.758;6.096;2023-03-14T04:16:36;8.70;99.90
43043;DHT22;28667;50.758;6.096;2023-03-14T04:19:09;8.70;99.90
43043;DHT22;28667;50.758;6.096;2023-03-14T04:21:35;8.70;99.90
43043;DHT22;28667;50.758;6.096;2023-03-14T04:24:01;8.70;99.90
43043;DHT22;28667;50.758;6.096;2023-03-14T04:26:30;8.70;99.90
43043;DHT22;28667;50.758;6.096;2023-03-14T04:28:56;8.80;99.90
43043;DHT22;28667;50.758;6.096;2023-03-14T04:31:22;8.70;99.90
43043;DHT22;28667;50.758;6.096;2023-03-14T04:33:49;8.70;99.90
43043;DHT22;28667;50.758;6.096;2023-03-14T04:36:20;8.70;99.90
43043;DHT22;28667;50.758;6.096;2023-03-14T04:38:46;8.70;99.90
43043;DHT22;28667;50.758;6.096;2023-03-14T04:41:16;8.70;99.90
43043;DHT22;28667;50.758;6.096;2023-03-14T04:43:42;8.80;99.90
43043;DHT22;28667;50.758;6.096;2023-03-14T04:46:10;8.80;99.90
43043;DHT22;28667;50.758;6.096;2023-03-14T04:48:35;8.80;99.90
43043;DHT22;28667;50.758;6.096;2023-03-14T04:51:03;8.90;99.90
43043;DHT22;28667;50.758;6.096;2023-03-14T04:53:32;8.80;99.90
43043;DHT22;28667;50.758;6.096;2023-03-14T04:55:58;8.80;99.90
43043;DHT22;28667;50.758;6.096;2023-03-14T04:58:31;8.80;99.90
43043;DHT22;28667;50.758;6.096;2023-03-14T05:01:04;8.80;99.90
43043;DHT22;28667;50.758;6.096;2023-03-14T05:03:38;8.80;99.90
43043;DHT22;28667;50.758;6.096;2023-03-14T05:06:15;8.80;99.90
43043;DHT22;28667;50.758;6.096;2023-03-14T05:09:07;8.80;99.90
43043;DHT22;28667;50.758;6.096;2023-03-14T05:11:44;8.80;99.90
43043;DHT22;28667;50.758;6.096;2023-03-14T05:14:28;8.70;99.90
43043;DHT22;28667;50.758;6.096;2023-03-14T05:17:05;8.80;99.90
43043;DHT22;28667;50.758;6.096;2023-03-14T05:19:54;8.80;99.90
43043;DHT22;28667;50.758;6.096;2023-03-14T05:22:25;8.80;99.90
43043;DHT22;28667;50.758;6.096;2023-03-14T05:25:07;8.70;99.90
43043;DHT22;28667;50.758;6.096;2023-03-14T05:27:54;8.80;99.90
43043;DHT22;28667;50.758;6.096;2023-03-14T05:30:38;8.80;99.90
43043;DHT22;28667;50.758;6.096;2023-03-14T05:33:37;8.70;99.90
43043;DHT22;28667;50.758;6.096;2023-03-14T05:36:08;8.80;99.90
43043;DHT22;28667;50.758;6.096;2023-03-14T05:38:53;8.70;99.90
43043;DHT22;28667;50.758;6.096;2023-03-14T05:41:39;8.70;99.90
43043;DHT22;28667;50.758;6.096;2023-03-14T05:44:23;8.70;99.90
43043;DHT22;28667;50.758;6.096;2023-03-14T05:47:07;8.60;99.90
43043;DHT22;28667;50.758;6.096;2023-03-14T05:49:51;8.60;99.90
43043;DHT22;28667;50.758;6.096;2023-03-14T05:52:35;8.60;99.90
43043;DHT22;28667;50.758;6.096;2023-03-14T05:55:20;8.70;99.90
43043;DHT22;28667;50.758;6.096;2023-03-14T05:57:53;8.70;99.90
43043;DHT22;28667;50.758;6.096;2023-03-14T06:00:42;8.60;99.90
43043;DHT22;28667;50.758;6.096;2023-03-14T06:03:18;8.60;99.90
43043;DHT22;28667;50.758;6.096;2023-03-14T06:05:50;8.70;99.90
43043;DHT22;28667;50.758;6.096;2023-03-14T06:08:17;8.60;99.90
43043;DHT22;28667;50.758;6.096;2023-03-14T06:10:43;8.60;99.90
43043;DHT22;28667;50.758;6.096;2023-03-14T06:13:08;8.60;99.90
43043;DHT22;28667;50.758;6.096;2023-03-14T06:15:34;8.70;99.90
43043;DHT22;28667;50.758;6.096;2023-03-14T06:18:01;8.70;99.90
43043;DHT22;28667;50.758;6.096;2023-03-14T06:20:27;8.70;99.90
43043;DHT22;28667;50.758;6.096;2023-03-14T06:22:53;8.70;99.90
43043;DHT22;28667;50.758;6.096;2023-03-14T06:25:19;8.80;99.90
43043;DHT22;28667;50.758;6.096;2023-03-14T06:27:47;8.80;99.90
43043;DHT22;28667;50.758;6.096;2023-03-14T06:30:14;8.80;99.90
43043;DHT22;28667;50.758;6.096;2023-03-14T06:32:39;8.90;99.90
43043;DHT22;28667;50.758;6.096;2023-03-14T06:35:09;8.90;99.90
43043;DHT22;28667;50.758;6.096;2023-03-14T06:37:39;8.90;99.90
43043;DHT22;28667;50.758;6.096;2023-03-14T06:40:05;9.00;99.90
43043;DHT22;28667;50.758;6.096;2023-03-14T06:42:55;9.00;99.90
43043;DHT22;28667;50.758;6.096;2023-03-14T06:45:22;9.00;99.90
43043;DHT22;28667;50.758;6.096;2023-03-14T06:47:49;9.00;99.90
43043;DHT22;28667;50.758;6.096;2023-03-14T06:50:16;9.00;99.90
43043;DHT22;28667;50.758;6.096;2023-03-14T06:52:44;9.00;99.90
43043;DHT22;28667;50.758;6.096;2023-03-14T06:55:16;9.10;99.90
43043;DHT22;28667;50.758;6.096;2023-03-14T06:57:42;9.10;99.90
43043;DHT22;28667;50.758;6.096;2023-03-14T07:00:10;9.20;99.90
43043;DHT22;28667;50.758;6.096;2023-03-14T07:02:37;9.30;99.90
43043;DHT22;28667;50.758;6.096;2023-03-14T07:05:04;9.30;99.90
43043;DHT22;28667;50.758;6.096;2023-03-14T07:07:30;9.30;99.90
43043;DHT22;28667;50.758;6.096;2023-03-14T07:09:56;9.40;99.90
43043;DHT22;28667;50.758;6.096;2023-03-14T07:12:23;9.50;99.90
43043;DHT22;28667;50.758;6.096;2023-03-14T07:14:49;9.50;99.90
43043;DHT22;28667;50.758;6.096;2023-03-14T07:17:15;9.60;99.90
43043;DHT22;28667;50.758;6.096;2023-03-14T07:19:41;9.60;99.90
43043;DHT22;28667;50.758;6.096;2023-03-14T07:22:08;9.70;99.90
43043;DHT22;28667;50.758;6.096;2023-03-14T07:24:34;9.70;99.90
43043;DHT22;28667;50.758;6.096;2023-03-14T07:27:00;9.80;99.90
43043;DHT22;28667;50.758;6.096;2023-03-14T07:29:26;9.80;99.90
43043;DHT22;28667;50.758;6.096;2023-03-14T07:31:52;9.90;99.90
43043;DHT22;28667;50.758;6.096;2023-03-14T07:34:19;9.90;99.90
43043;DHT22;28667;50.758;6.096;2023-03-14T07:36:45;9.90;99.90
43043;DHT22;28667;50.758;6.096;2023-03-14T07:39:11;9.90;99.90
43043;DHT22;28667;50.758;6.096;2023-03-14T07:41:44;9.90;99.90
43043;DHT22;28667;50.758;6.096;2023-03-14T07:44:39;10.00;99.90
43043;DHT22;28667;50.758;6.096;2023-03-14T07:47:05;10.00;99.90
43043;DHT22;28667;50.758;6.096;2023-03-14T07:49:31;10.20;99.90
43043;DHT22;28667;50.758;6.096;2023-03-14T07:51:57;10.20;99.90
43043;DHT22;28667;50.758;6.096;2023-03-14T07:54:23;10.30;99.90
43043;DHT22;28667;50.758;6.096;2023-03-14T07:56:50;10.30;99.90
43043;DHT22;28667;50.758;6.096;2023-03-14T07:59:17;10.40;99.90
43043;DHT22;28667;50.758;6.096;2023-03-14T08:01:43;10.40;99.90
43043;DHT22;28667;50.758;6.096;2023-03-14T08:04:09;10.40;99.90
43043;DHT22;28667;50.758;6.096;2023-03-14T08:06:36;10.50;99.90
43043;DHT22;28667;50.758;6.096;2023-03-14T08:09:02;10.40;99.90
43043;DHT22;28667;50.758;6.096;2023-03-14T08:11:28;10.40;99.90
43043;DHT22;28667;50.758;6.096;2023-03-14T08:13:53;10.40;99.90
43043;DHT22;28667;50.758;6.096;2023-03-14T08:16:19;10.40;99.90
43043;DHT22;28667;50.758;6.096;2023-03-14T08:18:45;10.40;99.90
43043;DHT22;28667;50.758;6.096;2023-03-14T08:21:11;10.30;99.90
43043;DHT22;28667;50.758;6.096;2023-03-14T08:23:38;10.30;99.90
43043;DHT22;28667;50.758;6.096;2023-03-14T08:26:04;10.30;99.90
43043;DHT22;28667;50.758;6.096;2023-03-14T08:28:29;10.30;99.90
43043;DHT22;28667;50.758;6.096;2023-03-14T08:30:58;10.30;99.90
43043;DHT22;28667;50.758;6.096;2023-03-14T08:33:25;10.30;99.90
43043;DHT22;28667;50.758;6.096;2023-03-14T08:35:58;10.40;99.90
43043;DHT22;28667;50.758;6.096;2023-03-14T08:38:24;10.40;99.90
43043;DHT22;28667;50.758;6.096;2023-03-14T08:40:56;10.40;99.90
43043;DHT22;28667;50.758;6.096;2023-03-14T08:43:22;10.40;99.90
43043;DHT22;28667;50.758;6.096;2023-03-14T08:45:47;10.30;99.90
43043;DHT22;28667;50.758;6.096;2023-03-14T08:48:13;10.20;99.90
43043;DHT22;28667;50.758;6.096;2023-03-14T08:50:39;10.20;99.90
43043;DHT22;28667;50.758;6.096;2023-03-14T08:53:05;10.20;99.90
43043;DHT22;28667;50.758;6.096;2023-03-14T08:55:30;9.90;99.90
43043;DHT22;28667;50.758;6.096;2023-03-14T08:57:56;9.60;99.90
43043;DHT22;28667;50.758;6.096;2023-03-14T09:00:22;9.30;99.90
43043;DHT22;28667;50.758;6.096;2023-03-14T09:02:48;8.90;99.90
43043;DHT22;28667;50.758;6.096;2023-03-14T09:05:13;8.70;99.90
43043;DHT22;28667;50.758;6.096;2023-03-14T09:07:40;8.40;99.90
43043;DHT22;28667;50.758;6.096;2023-03-14T09:10:07;8.20;99.90
43043;DHT22;28667;50.758;6.096;2023-03-14T09:12:33;8.00;99.90
43043;DHT22;28667;50.758;6.096;2023-03-14T09:14:59;7.80;99.90
43043;DHT22;28667;50.758;6.096;2023-03-14T09:17:25;7.70;99.90
43043;DHT22;28667;50.758;6.096;2023-03-14T09:19:50;7.50;99.90
43043;DHT22;28667;50.758;6.096;2023-03-14T09:22:16;7.50;99.90
43043;DHT22;28667;50.758;6.096;2023-03-14T09:24:42;7.40;99.90
43043;DHT22;28667;50.758;6.096;2023-03-14T09:27:08;7.30;99.90
43043;DHT22;28667;50.758;6.096;2023-03-14T09:29:34;7.30;99.90
43043;DHT22;28667;50.758;6.096;2023-03-14T09:32:00;7.30;99.90
43043;DHT22;28667;50.758;6.096;2023-03-14T09:34:26;7.20;99.90
43043;DHT22;28667;50.758;6.096;2023-03-14T09:36:52;7.20;99.90
43043;DHT22;28667;50.758;6.096;2023-03-14T09:39:17;7.10;99.90
43043;DHT22;28667;50.758;6.096;2023-03-14T09:41:49;7.00;99.90
43043;DHT22;28667;50.758;6.096;2023-03-14T09:46:44;7.00;99.90
43043;DHT22;28667;50.758;6.096;2023-03-14T09:49:21;6.90;99.90
43043;DHT22;28667;50.758;6.096;2023-03-14T09:51:52;6.90;99.90
43043;DHT22;28667;50.758;6.096;2023-03-14T09:54:30;6.90;99.90
43043;DHT22;28667;50.758;6.096;2023-03-14T09:56:56;6.90;99.90
43043;DHT22;28667;50.758;6.096;2023-03-14T09:59:22;7.00;99.90
43043;DHT22;28667;50.758;6.096;2023-03-14T10:01:48;7.00;99.90
43043;DHT22;28667;50.758;6.096;2023-03-14T10:04:17;7.20;99.90
43043;DHT22;28667;50.758;6.096;2023-03-14T10:06:45;7.30;99.90
43043;DHT22;28667;50.758;6.096;2023-03-14T10:09:19;7.40;99.90
43043;DHT22;28667;50.758;6.096;2023-03-14T10:11:53;7.40;99.90
43043;DHT22;28667;50.758;6.096;2023-03-14T10:14:30;7.50;99.90
43043;DHT22;28667;50.758;6.096;2023-03-14T10:17:05;7.50;99.90
43043;DHT22;28667;50.758;6.096;2023-03-14T10:19:32;7.50;99.90
43043;DHT22;28667;50.758;6.096;2023-03-14T10:22:01;7.50;99.90
43043;DHT22;28667;50.758;6.096;2023-03-14T10:24:30;7.50;99.90
43043;DHT22;28667;50.758;6.096;2023-03-14T10:27:03;7.50;99.90
43043;DHT22;28667;50.758;6.096;2023-03-14T10:29:31;7.50;99.90
43043;DHT22;28667;50.758;6.096;2023-03-14T10:32:10;7.50;99.90
43043;DHT22;28667;50.758;6.096;2023-03-14T10:34:43;7.50;99.90
43043;DHT22;28667;50.758;6.096;2023-03-14T10:37:22;7.60;99.90
43043;DHT22;28667;50.758;6.096;2023-03-14T10:39:50;7.70;99.90
43043;DHT22;28667;50.758;6.096;2023-03-14T10:42:28;7.70;99.90
43043;DHT22;28667;50.758;6.096;2023-03-14T10:45:01;7.70;99.90
43043;DHT22;28667;50.758;6.096;2023-03-14T10:47:28;7.70;99.90
43043;DHT22;28667;50.758;6.096;2023-03-14T10:49:55;7.60;99.90
43043;DHT22;28667;50.758;6.096;2023-03-14T10:52:28;7.60;99.90
43043;DHT22;28667;50.758;6.096;2023-03-14T10:55:09;7.70;99.90
43043;DHT22;28667;50.758;6.096;2023-03-14T10:57:42;7.60;99.90
43043;DHT22;28667;50.758;6.096;2023-03-14T11:00:17;7.40;99.90
43043;DHT22;28667;50.758;6.096;2023-03-14T11:05:31;7.00;99.90
43043;DHT22;28667;50.758;6.096;2023-03-14T11:08:04;6.80;99.90
43043;DHT22;28667;50.758;6.096;2023-03-14T11:10:33;6.80;99.90
43043;DHT22;28667;50.758;6.096;2023-03-14T11:16:06;6.80;99.90
43043;DHT22;28667;50.758;6.096;2023-03-14T11:18:48;6.90;99.90
43043;DHT22;28667;50.758;6.096;2023-03-14T11:21:32;7.00;99.90
43043;DHT22;28667;50.758;6.096;2023-03-14T11:29:41;7.30;99.90
43043;DHT22;28667;50.758;6.096;2023-03-14T11:32:19;7.40;99.90
43043;DHT22;28667;50.758;6.096;2023-03-14T11:34:51;7.50;99.90
43043;DHT22;28667;50.758;6.096;2023-03-14T11:37:25;7.60;99.90
43043;DHT22;28667;50.758;6.096;2023-03-14T11:40:00;7.70;99.90
43043;DHT22;28667;50.758;6.096;2023-03-14T11:42:31;7.80;99.90
43043;DHT22;28667;50.758;6.096;2023-03-14T11:45:00;7.80;99.90
43043;DHT22;28667;50.758;6.096;2023-03-14T11:47:51;7.80;99.90
43043;DHT22;28667;50.758;6.096;2023-03-14T11:50:27;7.90;99.90
43043;DHT22;28667;50.758;6.096;2023-03-14T11:53:09;7.80;99.90
43043;DHT22;28667;50.758;6.096;2023-03-14T11:55:39;7.70;99.90
43043;DHT22;28667;50.758;6.096;2023-03-14T11:58:34;7.70;99.90
43043;DHT22;28667;50.758;6.096;2023-03-14T12:01:08;7.50;99.90
43043;DHT22;28667;50.758;6.096;2023-03-14T12:03:42;7.40;99.90
43043;DHT22;28667;50.758;6.096;2023-03-14T12:09:00;7.10;99.90
43043;DHT22;28667;50.758;6.096;2023-03-14T12:11:59;6.90;99.90
43043;DHT22;28667;50.758;6.096;2023-03-14T12:14:28;6.80;99.90
43043;DHT22;28667;50.758;6.096;2023-03-14T12:19:41;6.60;99.90
43043;DHT22;28667;50.758;6.096;2023-03-14T12:24:56;6.40;99.90
43043;DHT22;28667;50.758;6.096;2023-03-14T12:30:25;6.20;99.90
43043;DHT22;28667;50.758;6.096;2023-03-14T12:35:57;5.90;99.90
43043;DHT22;28667;50.758;6.096;2023-03-14T12:39:08;5.80;99.90
43043;DHT22;28667;50.758;6.096;2023-03-14T12:46:58;5.70;99.90
43043;DHT22;28667;50.758;6.096;2023-03-14T12:49:31;5.80;99.90
43043;DHT22;28667;50.758;6.096;2023-03-14T12:52:01;6.00;99.90
43043;DHT22;28667;50.758;6.096;2023-03-14T12:59:56;6.50;99.90
43043;DHT22;28667;50.758;6.096;2023-03-14T13:02:40;6.50;99.90
43043;DHT22;28667;50.758;6.096;2023-03-14T13:05:18;6.60;99.90
43043;DHT22;28667;50.758;6.096;2023-03-14T13:10:30;6.60;99.90
43043;DHT22;28667;50.758;6.096;2023-03-14T13:13:16;6.50;99.90
43043;DHT22;28667;50.758;6.096;2023-03-14T13:15:45;6.20;99.90
43043;DHT22;28667;50.758;6.096;2023-03-14T13:18:18;6.00;99.90
43043;DHT22;28667;50.758;6.096;2023-03-14T13:20:54;5.80;99.90
43043;DHT22;28667;50.758;6.096;2023-03-14T13:23:27;5.60;99.90
43043;DHT22;28667;50.758;6.096;2023-03-14T13:25:53;5.40;99.90
43043;DHT22;28667;50.758;6.096;2023-03-14T13:28:20;5.20;99.90
43043;DHT22;28667;50.758;6.096;2023-03-14T13:30:47;5.00;99.90
43043;DHT22;28667;50.758;6.096;2023-03-14T13:33:16;5.00;99.90
43043;DHT22;28667;50.758;6.096;2023-03-14T13:35:57;4.90;99.90
43043;DHT22;28667;50.758;6.096;2023-03-14T13:38:25;4.80;99.90
43043;DHT22;28667;50.758;6.096;2023-03-14T13:40:54;4.70;99.90
43043;DHT22;28667;50.758;6.096;2023-03-14T13:43:28;4.70;99.90
43043;DHT22;28667;50.758;6.096;2023-03-14T13:46:11;4.50;99.90
43043;DHT22;28667;50.758;6.096;2023-03-14T13:49:01;4.50;99.90
43043;DHT22;28667;50.758;6.096;2023-03-14T13:51:27;4.50;99.90
43043;DHT22;28667;50.758;6.096;2023-03-14T13:53:58;4.50;99.90
43043;DHT22;28667;50.758;6.096;2023-03-14T13:56:31;4.50;99.90
43043;DHT22;28667;50.758;6.096;2023-03-14T13:58:57;4.50;99.90
43043;DHT22;28667;50.758;6.096;2023-03-14T14:01:24;4.60;99.90
43043;DHT22;28667;50.758;6.096;2023-03-14T14:03:53;4.60;99.90
43043;DHT22;28667;50.758;6.096;2023-03-14T14:06:35;4.50;99.90
43043;DHT22;28667;50.758;6.096;2023-03-14T14:09:13;4.50;99.90
43043;DHT22;28667;50.758;6.096;2023-03-14T14:11:48;4.30;99.90
43043;DHT22;28667;50.758;6.096;2023-03-14T14:14:24;4.20;99.90
43043;DHT22;28667;50.758;6.096;2023-03-14T14:16:52;4.20;99.90
43043;DHT22;28667;50.758;6.096;2023-03-14T14:19:19;4.20;99.90
43043;DHT22;28667;50.758;6.096;2023-03-14T14:21:46;4.10;99.90
43043;DHT22;28667;50.758;6.096;2023-03-14T14:24:15;4.10;99.90
43043;DHT22;28667;50.758;6.096;2023-03-14T14:26:51;4.10;99.90
43043;DHT22;28667;50.758;6.096;2023-03-14T14:29:31;4.20;99.90
43043;DHT22;28667;50.758;6.096;2023-03-14T14:34:44;4.30;99.90
43043;DHT22;28667;50.758;6.096;2023-03-14T14:37:41;4.40;99.90
43043;DHT22;28667;50.758;6.096;2023-03-14T14:40:18;4.40;99.90
43043;DHT22;28667;50.758;6.096;2023-03-14T14:42:44;4.50;99.90
43043;DHT22;28667;50.758;6.096;2023-03-14T14:45:17;4.50;99.90
43043;DHT22;28667;50.758;6.096;2023-03-14T14:56:28;4.60;99.90
43043;DHT22;28667;50.758;6.096;2023-03-14T14:59:01;4.70;99.90
43043;DHT22;28667;50.758;6.096;2023-03-14T15:01:31;4.80;99.90
43043;DHT22;28667;50.758;6.096;2023-03-14T15:03:57;4.80;99.90
43043;DHT22;28667;50.758;6.096;2023-03-14T15:06:26;4.90;99.90
43043;DHT22;28667;50.758;6.096;2023-03-14T15:08:54;5.00;99.90
43043;DHT22;28667;50.758;6.096;2023-03-14T15:11:24;5.10;99.90
43043;DHT22;28667;50.758;6.096;2023-03-14T15:13:51;5.20;99.90
43043;DHT22;28667;50.758;6.096;2023-03-14T15:16:20;5.30;99.90
43043;DHT22;28667;50.758;6.096;2023-03-14T15:18:53;5.40;99.90
43043;DHT22;28667;50.758;6.096;2023-03-14T15:21:21;5.40;99.90
43043;DHT22;28667;50.758;6.096;2023-03-14T15:23:47;5.40;99.90
43043;DHT22;28667;50.758;6.096;2023-03-14T15:26:16;5.40;99.90
43043;DHT22;28667;50.758;6.096;2023-03-14T15:28:42;5.40;99.90
43043;DHT22;28667;50.758;6.096;2023-03-14T15:31:10;5.40;99.90
43043;DHT22;28667;50.758;6.096;2023-03-14T15:33:36;5.40;99.90
43043;DHT22;28667;50.758;6.096;2023-03-14T15:36:03;5.40;99.90
43043;DHT22;28667;50.758;6.096;2023-03-14T15:38:29;5.40;99.90
43043;DHT22;28667;50.758;6.096;2023-03-14T15:40:55;5.40;99.90
43043;DHT22;28667;50.758;6.096;2023-03-14T15:43:21;5.30;99.90
43043;DHT22;28667;50.758;6.096;2023-03-14T15:45:47;5.30;99.90
43043;DHT22;28667;50.758;6.096;2023-03-14T15:48:22;5.20;99.90
43043;DHT22;28667;50.758;6.096;2023-03-14T15:50:47;5.20;99.90
43043;DHT22;28667;50.758;6.096;2023-03-14T15:53:13;5.20;99.90
43043;DHT22;28667;50.758;6.096;2023-03-14T15:55:39;5.20;99.90
43043;DHT22;28667;50.758;6.096;2023-03-14T15:58:05;5.10;99.90
43043;DHT22;28667;50.758;6.096;2023-03-14T16:00:31;5.10;99.90
43043;DHT22;28667;50.758;6.096;2023-03-14T16:02:57;5.00;99.90
43043;DHT22;28667;50.758;6.096;2023-03-14T16:05:23;4.90;99.90
43043;DHT22;28667;50.758;6.096;2023-03-14T16:07:49;4.90;99.90
43043;DHT22;28667;50.758;6.096;2023-03-14T16:10:16;4.90;99.90
43043;DHT22;28667;50.758;6.096;2023-03-14T16:12:41;4.80;99.90
43043;DHT22;28667;50.758;6.096;2023-03-14T16:15:08;4.80;99.90
43043;DHT22;28667;50.758;6.096;2023-03-14T16:17:35;4.80;99.90
43043;DHT22;28667;50.758;6.096;2023-03-14T16:20:03;4.80;99.90
43043;DHT22;28667;50.758;6.096;2023-03-14T16:22:29;4.80;99.90
43043;DHT22;28667;50.758;6.096;2023-03-14T16:25:01;4.90;99.90
43043;DHT22;28667;50.758;6.096;2023-03-14T16:27:27;4.90;99.90
43043;DHT22;28667;50.758;6.096;2023-03-14T16:29:53;5.00;99.90
43043;DHT22;28667;50.758;6.096;2023-03-14T16:32:18;5.00;99.90
43043;DHT22;28667;50.758;6.096;2023-03-14T16:34:44;4.90;99.90
43043;DHT22;28667;50.758;6.096;2023-03-14T16:37:10;4.80;99.90
43043;DHT22;28667;50.758;6.096;2023-03-14T16:39:36;4.70;99.90
43043;DHT22;28667;50.758;6.096;2023-03-14T16:42:01;4.70;99.90
43043;DHT22;28667;50.758;6.096;2023-03-14T16:44:27;4.60;99.90
43043;DHT22;28667;50.758;6.096;2023-03-14T16:46:53;4.60;99.90
43043;DHT22;28667;50.758;6.096;2023-03-14T16:49:18;4.60;99.90
43043;DHT22;28667;50.758;6.096;2023-03-14T16:51:44;4.60;99.90
43043;DHT22;28667;50.758;6.096;2023-03-14T16:54:10;4.60;99.90
43043;DHT22;28667;50.758;6.096;2023-03-14T16:56:35;4.50;99.90
43043;DHT22;28667;50.758;6.096;2023-03-14T16:59:01;4.40;99.90
43043;DHT22;28667;50.758;6.096;2023-03-14T17:01:27;4.40;99.90